Grootegast, Netherlands
Current Conditions -  °F | °C
As of 5:25 PM on Saturday 20 Dec 2014 (Local Time) from EHGG Reporting Station
Clear Clear  
Wind Chill: 33°   Ceiling: Unl
Heat Index: 41°   Visibility: 6mi
Dew Point: 37°   Wind: 15mph
Humidity: 87%   Direction: 290°WNW
Pressure: 29.97"   Gusts: NA
Location:  53.21°N, 6.27°E
Report Text: EHGG 201625Z AUTO 29013KT 260V330 9999 NSC 05/03 Q1015 TEMPO30017G27KT
Loading
Personal Weather Stations






























Interactive Weather Map New forecast layout! Learn more

10-Day Weather Forecast

Advertisements
Track Severe Weather on mobile